Time;durP1;ratioP1;P1;durP2;ratioP2;P2;SDS_P1;SDS_P2;PMS_P1;PMS_P2;Temp;Humidity;BMP_temperature;BMP_pressure;BME280_temperature;BME280_humidity;BME280_pressure;Samples;Min_cycle;Max_cycle;Signal;HPM_P1;HPM_P2
2022/11/03 00:00:11;;;;;;;18.70;2.38;;;23.60;29.60;;;;;;5079692;28;20100;-67
2022/11/03 00:02:37;;;;;;;6.93;1.42;;;23.70;29.40;;;;;;5081504;28;20068;-68
2022/11/03 00:06:03;;;;;;;15.63;1.63;;;23.70;28.70;;;;;;5088168;28;20124;-66
2022/11/03 00:07:50;;;;;;;10.65;1.83;;;23.70;28.00;;;;;;5080853;28;20069;-64
2022/11/03 00:10:16;;;;;;;11.88;2.53;;;23.70;27.90;;;;;;5080079;28;20176;-67
2022/11/03 00:12:43;;;;;;;9.73;1.67;;;23.60;28.00;;;;;;5078052;28;20076;-68
2022/11/03 00:15:09;;;;;;;19.52;1.73;;;23.30;28.40;;;;;;5081293;28;20472;-68
2022/11/03 00:17:36;;;;;;;14.20;2.08;;;23.30;28.50;;;;;;5079914;28;20135;-67
2022/11/03 00:20:02;;;;;;;10.07;2.22;;;23.30;28.30;;;;;;5079552;28;20087;-69
2022/11/03 00:22:31;;;;;;;10.57;2.10;;;23.40;28.20;;;;;;5081184;28;20080;-64
2022/11/03 00:24:58;;;;;;;12.90;3.03;;;23.30;28.60;;;;;;5083565;28;20084;-67
2022/11/03 00:27:24;;;;;;;15.13;3.35;;;23.30;28.70;;;;;;5080779;28;20076;-67
2022/11/03 00:29:51;;;;;;;14.93;1.83;;;23.20;29.00;;;;;;5079070;28;20537;-65
2022/11/03 00:32:17;;;;;;;11.63;2.30;;;23.10;28.90;;;;;;5078730;28;20425;-67
2022/11/03 00:34:43;;;;;;;14.05;2.45;;;23.10;29.30;;;;;;5080393;28;20429;-70
2022/11/03 00:37:10;;;;;;;10.27;2.10;;;22.90;29.40;;;;;;5077390;28;20094;-68
2022/11/03 00:39:36;;;;;;;17.50;2.97;;;22.80;29.80;;;;;;5081186;28;20094;-64
2022/11/03 00:42:03;;;;;;;8.40;1.63;;;22.70;30.00;;;;;;5082608;28;20088;-69
2022/11/03 00:44:29;;;;;;;14.40;1.92;;;22.60;29.80;;;;;;5082751;28;20087;-70
2022/11/03 00:46:56;;;;;;;16.27;1.63;;;22.60;29.90;;;;;;5076658;28;20068;-69
2022/11/03 00:49:22;;;;;;;18.38;1.83;;;22.60;30.00;;;;;;5081965;28;20117;-67
2022/11/03 00:51:48;;;;;;;13.95;1.77;;;22.50;30.00;;;;;;5076468;28;20073;-67
2022/11/03 00:54:15;;;;;;;12.98;1.75;;;22.50;29.70;;;;;;5080107;28;20081;-67
2022/11/03 00:56:43;;;;;;;16.23;2.22;;;22.50;30.10;;;;;;5081171;28;20072;-63
2022/11/03 00:59:09;;;;;;;16.00;2.13;;;22.50;30.00;;;;;;5080182;28;20530;-66
2022/11/03 01:01:41;;;;;;;14.30;1.85;;;22.40;29.90;;;;;;5080776;28;20069;-70
2022/11/03 01:06:56;;;;;;;18.35;1.80;;;22.30;30.20;;;;;;5078867;28;20541;-69
2022/11/03 01:09:25;;;;;;;9.15;1.40;;;22.20;30.30;;;;;;5081958;28;20515;-69
2022/11/03 01:11:55;;;;;;;17.00;2.38;;;22.20;30.50;;;;;;5076787;28;20065;-67
2022/11/03 01:14:21;;;;;;;20.98;2.55;;;22.00;30.80;;;;;;5072331;28;20081;-67
2022/11/03 01:16:48;;;;;;;53.65;5.15;;;22.00;31.50;;;;;;5077110;28;20112;-66
2022/11/03 01:19:14;;;;;;;55.00;6.00;;;21.80;39.00;;;;;;5077116;28;20097;-65
2022/11/03 01:21:40;;;;;;;76.72;7.15;;;21.40;41.60;;;;;;5080023;28;20068;-67
2022/11/03 01:24:07;;;;;;;78.32;7.40;;;21.30;42.10;;;;;;5078581;28;20552;-67
2022/11/03 01:26:33;;;;;;;68.22;7.35;;;21.20;43.10;;;;;;5075423;28;20537;-67
2022/11/03 01:29:00;;;;;;;66.82;7.50;;;21.00;43.20;;;;;;5075219;28;20088;-68
2022/11/03 01:31:27;;;;;;;73.03;6.15;;;21.00;43.20;;;;;;5083456;28;20500;-69
2022/11/03 01:33:55;;;;;;;63.72;5.97;;;21.10;43.20;;;;;;5078401;28;20115;-66
2022/11/03 01:36:21;;;;;;;63.97;5.70;;;21.00;43.30;;;;;;5077625;28;20068;-68
2022/11/03 01:38:48;;;;;;;47.65;5.18;;;21.00;43.20;;;;;;5075236;28;20148;-68
2022/11/03 01:41:19;;;;;;;37.35;4.20;;;21.10;42.50;;;;;;5079251;28;20088;-67
2022/11/03 01:43:51;;;;;;;18.15;3.40;;;21.00;40.60;;;;;;5071800;28;20076;-67
2022/11/03 01:46:24;;;;;;;17.83;2.90;;;21.00;37.70;;;;;;5078265;28;20069;-66
2022/11/03 01:49:16;;;;;;;21.38;3.05;;;21.00;37.70;;;;;;5082450;28;20069;-65
2022/11/03 01:51:51;;;;;;;29.65;3.17;;;21.00;38.20;;;;;;5070496;28;20097;-68
2022/11/03 01:54:21;;;;;;;21.13;3.05;;;20.90;38.00;;;;;;5079911;28;20669;-66
2022/11/03 01:56:50;;;;;;;23.23;3.20;;;20.90;38.00;;;;;;5077117;28;20111;-67
2022/11/03 01:59:19;;;;;;;24.60;2.72;;;20.90;37.60;;;;;;5078896;28;20080;-66
2022/11/03 02:01:46;;;;;;;34.00;2.90;;;20.90;37.50;;;;;;5075065;28;20097;-65
2022/11/03 02:04:20;;;;;;;36.05;13.18;;;20.90;37.40;;;;;;5079953;28;20077;-68
2022/11/03 02:06:51;;;;;;;22.25;9.35;;;20.90;37.40;;;;;;5082811;28;20080;-68
2022/11/03 02:09:18;;;;;;;14.35;3.10;;;20.90;37.40;;;;;;5074325;28;20108;-67
2022/11/03 02:14:29;;;;;;;15.00;2.67;;;20.90;37.20;;;;;;5083993;28;20099;-66
2022/11/03 02:17:03;;;;;;;12.88;2.80;;;20.80;37.20;;;;;;5083618;28;20133;-66
2022/11/03 02:20:13;;;;;;;18.85;4.22;;;20.80;37.10;;;;;;5084534;28;20069;-66
2022/11/03 02:22:59;;;;;;;16.42;4.30;;;20.80;37.30;;;;;;5076416;28;20084;-66
2022/11/03 02:25:43;;;;;;;21.20;3.08;;;20.80;37.40;;;;;;5080234;28;20076;-67
2022/11/03 02:28:12;;;;;;;18.83;2.42;;;20.70;37.60;;;;;;5085896;28;20081;-65
2022/11/03 02:30:49;;;;;;;16.00;2.63;;;20.60;37.10;;;;;;5076425;28;20572;-67
2022/11/03 02:33:50;;;;;;;24.77;2.72;;;20.60;36.40;;;;;;5084036;28;20095;-65
2022/11/03 02:37:01;;;;;;;14.70;2.15;;;20.60;35.70;;;;;;5085693;28;20448;-65
2022/11/03 02:39:48;;;;;;;19.75;2.22;;;20.60;35.60;;;;;;5030552;28;20073;-67
2022/11/03 02:42:17;;;;;;;11.82;2.38;;;20.60;35.20;;;;;;5021000;28;20089;-67
2022/11/03 02:44:45;;;;;;;9.50;2.30;;;20.50;35.40;;;;;;5030645;28;20089;-66
2022/11/03 02:47:14;;;;;;;15.65;3.00;;;20.50;35.70;;;;;;5030374;28;20116;-69
2022/11/03 02:49:46;;;;;;;14.07;2.42;;;20.50;35.50;;;;;;5030329;28;20117;-67
2022/11/03 02:52:37;;;;;;;9.40;1.67;;;20.50;34.90;;;;;;5030484;28;20084;-68
2022/11/03 02:55:18;;;;;;;10.10;2.05;;;20.40;33.80;;;;;;5030341;28;20553;-66
2022/11/03 02:57:54;;;;;;;11.23;2.40;;;20.40;32.90;;;;;;5030592;28;20094;-68
2022/11/03 03:00:21;;;;;;;13.35;2.90;;;20.40;34.00;;;;;;5030313;28;20073;-68
2022/11/03 03:03:01;;;;;;;13.20;2.15;;;20.30;35.30;;;;;;5030205;28;20531;-69
2022/11/03 03:05:31;;;;;;;26.08;3.22;;;20.20;36.00;;;;;;5030247;28;20511;-68
2022/11/03 03:08:04;;;;;;;12.00;2.10;;;20.10;35.80;;;;;;5030274;28;20074;-67
2022/11/03 03:10:35;;;;;;;14.13;2.13;;;20.10;35.20;;;;;;5064216;28;20105;-68
2022/11/03 03:13:05;;;;;;;11.73;2.28;;;20.10;34.90;;;;;;5079635;28;20571;-66
2022/11/03 03:15:47;;;;;;;27.48;2.58;;;20.10;34.10;;;;;;5078960;28;20139;-64
2022/11/03 03:18:26;;;;;;;18.92;2.45;;;20.10;34.00;;;;;;5081705;28;20154;-65
2022/11/03 03:21:16;;;;;;;22.70;2.13;;;20.10;34.20;;;;;;5078635;28;20080;-66
2022/11/03 03:24:09;;;;;;;34.35;3.05;;;20.10;35.00;;;;;;5082556;28;20213;-66
2022/11/03 03:26:45;;;;;;;17.58;2.60;;;20.10;35.40;;;;;;5080152;28;20114;-65
2022/11/03 03:29:17;;;;;;;30.63;2.70;;;20.00;36.30;;;;;;5083548;28;20073;-66
2022/11/03 03:31:50;;;;;;;32.20;3.03;;;20.00;36.80;;;;;;5078456;28;20414;-66
2022/11/03 03:34:19;;;;;;;31.15;3.08;;;19.80;37.50;;;;;;5084168;28;20137;-66
2022/11/03 03:36:47;;;;;;;15.77;2.63;;;19.70;38.10;;;;;;5080014;28;20073;-65
2022/11/03 03:39:15;;;;;;;24.30;4.20;;;19.70;38.50;;;;;;5085746;28;20081;-67
2022/11/03 03:41:44;;;;;;;38.45;3.67;;;19.50;39.00;;;;;;5084395;28;20526;-67
2022/11/03 03:44:12;;;;;;;33.83;2.55;;;19.50;39.50;;;;;;5082137;28;20065;-67
2022/11/03 03:46:43;;;;;;;47.08;3.65;;;19.50;39.80;;;;;;5082286;28;20183;-67
2022/11/03 03:49:10;;;;;;;21.73;3.20;;;19.40;39.90;;;;;;5077026;28;20542;-68
2022/11/03 03:51:37;;;;;;;17.00;3.78;;;19.50;40.00;;;;;;5083648;28;20538;-66
2022/11/03 03:54:03;;;;;;;14.77;3.72;;;19.40;39.90;;;;;;5087341;28;20432;-66
2022/11/03 03:56:40;;;;;;;21.30;3.20;;;19.40;39.80;;;;;;5084552;28;20069;-68
2022/11/03 03:59:07;;;;;;;;;;;19.30;39.60;;;;;;5077571;28;20104;-67
2022/11/03 04:01:33;;;;;;;13.90;2.33;;;19.30;39.90;;;;;;5077081;28;19961;-67
2022/11/03 04:04:00;;;;;;;13.68;2.10;;;19.30;39.90;;;;;;5084153;28;20292;-66
2022/11/03 04:06:26;;;;;;;13.98;2.67;;;19.20;40.10;;;;;;5079776;28;20076;-66
2022/11/03 04:08:53;;;;;;;23.88;2.75;;;19.20;40.50;;;;;;5083925;28;20073;-67
2022/11/03 04:22:17;;;;;;;25.83;2.55;;;19.00;42.20;;;;;;5086254;28;20100;-68
2022/11/03 04:24:46;;;;;;;28.42;2.90;;;18.90;42.20;;;;;;5075311;28;20146;-69
2022/11/03 04:27:35;;;;;;;16.20;2.28;;;18.80;42.50;;;;;;5081543;28;20151;-65
2022/11/03 04:30:18;;;;;;;19.88;2.17;;;18.80;42.60;;;;;;5084677;28;20077;-70
2022/11/03 04:32:47;;;;;;;42.97;3.38;;;18.80;42.90;;;;;;5076970;28;20143;-62
2022/11/03 04:35:18;;;;;;;26.02;2.83;;;18.90;43.40;;;;;;5073910;28;20160;-64
2022/11/03 04:38:01;;;;;;;33.85;3.20;;;18.90;43.70;;;;;;5075641;28;20067;-64
2022/11/03 04:40:28;;;;;;;17.98;3.17;;;19.00;43.90;;;;;;5079692;28;20092;-71
2022/11/03 04:42:55;;;;;;;53.47;3.25;;;19.00;44.10;;;;;;5076960;28;20073;-61
2022/11/03 04:45:32;;;;;;;14.85;2.53;;;19.00;44.30;;;;;;5080249;28;20602;-67
2022/11/03 04:48:05;;;;;;;16.40;2.47;;;19.00;44.30;;;;;;5080691;28;20084;-67
2022/11/03 04:50:32;;;;;;;16.10;2.17;;;18.80;44.50;;;;;;5075835;28;20170;-64
2022/11/03 04:52:58;;;;;;;24.77;2.63;;;18.80;44.80;;;;;;5075960;28;20065;-65
2022/11/03 04:55:26;;;;;;;13.52;2.53;;;18.80;44.80;;;;;;5080710;28;20073;-64
2022/11/03 04:57:59;;;;;;;12.00;2.47;;;18.70;44.80;;;;;;5076374;28;20069;-64
2022/11/03 05:00:25;;;;;;;17.48;2.70;;;18.70;45.40;;;;;;5084984;28;20068;-65
2022/11/03 05:02:59;;;;;;;16.10;2.45;;;18.60;45.40;;;;;;5077942;28;20068;-66
2022/11/03 05:05:26;;;;;;;21.55;2.78;;;18.50;45.90;;;;;;5080663;28;20076;-64
2022/11/03 05:07:55;;;;;;;12.05;2.10;;;18.50;45.90;;;;;;5079073;28;20068;-66
2022/11/03 05:10:27;;;;;;;11.82;2.10;;;18.50;46.20;;;;;;5076500;28;20176;-63
2022/11/03 05:12:55;;;;;;;14.18;2.17;;;18.50;46.60;;;;;;5081183;28;20068;-65
2022/11/03 05:15:36;;;;;;;13.07;2.05;;;18.40;46.90;;;;;;5070013;28;20116;-63
2022/11/03 05:18:26;;;;;;;8.35;2.72;;;18.40;47.10;;;;;;5078367;28;20449;-67
2022/11/03 05:21:26;;;;;;;26.90;12.57;;;18.40;47.40;;;;;;5084421;28;20107;-62
2022/11/03 05:24:00;;;;;;;11.32;2.28;;;18.40;47.70;;;;;;4996567;28;20093;-65
2022/11/03 05:26:31;;;;;;;18.00;2.50;;;18.40;47.90;;;;;;4987959;28;20094;-59
2022/11/03 05:29:18;;;;;;;4.07;1.45;;;18.40;48.10;;;;;;4989491;28;20532;-62
2022/11/03 05:31:47;;;;;;;16.30;2.42;;;18.30;48.30;;;;;;5002128;28;20078;-66
2022/11/03 05:34:20;;;;;;;13.43;2.90;;;18.30;48.40;;;;;;4988637;28;20142;-62
2022/11/03 05:36:46;;;;;;;11.32;1.83;;;18.30;48.60;;;;;;4999499;28;20478;-63
2022/11/03 05:39:24;;;;;;;11.65;2.03;;;18.20;48.60;;;;;;4992903;28;20083;-64
2022/11/03 05:41:50;;;;;;;11.02;1.98;;;18.10;49.00;;;;;;4988102;28;20649;-65
2022/11/03 05:44:36;;;;;;;8.77;2.05;;;18.10;49.10;;;;;;4989789;28;20079;-66
2022/11/03 05:47:20;;;;;;;14.63;2.50;;;18.00;49.20;;;;;;4987222;28;20174;-69
2022/11/03 05:49:53;;;;;;;13.60;2.72;;;17.90;49.30;;;;;;4987502;28;20260;-61
2022/11/03 05:52:23;;;;;;;10.30;1.90;;;17.90;49.50;;;;;;4987926;28;20536;-66
2022/11/03 05:54:51;;;;;;;16.92;2.03;;;17.90;49.60;;;;;;4987781;28;20478;-64
2022/11/03 05:57:18;;;;;;;18.67;2.65;;;17.80;49.80;;;;;;4987734;28;20067;-63
2022/11/03 05:59:51;;;;;;;21.40;2.63;;;17.80;50.10;;;;;;5039704;28;20095;-65
2022/11/03 06:02:39;;;;;;;8.38;1.95;;;17.80;50.10;;;;;;5070390;28;20106;-62
2022/11/03 06:05:26;;;;;;;13.27;2.08;;;17.80;50.20;;;;;;5068117;28;20534;-64
2022/11/03 06:07:55;;;;;;;14.05;2.45;;;17.70;50.30;;;;;;5069731;28;20114;-67
2022/11/03 06:10:35;;;;;;;8.85;2.38;;;17.80;50.50;;;;;;5071410;28;20426;-65
2022/11/03 06:13:07;;;;;;;14.27;2.55;;;17.80;50.40;;;;;;5075349;28;20073;-67
2022/11/03 06:15:35;;;;;;;14.48;2.15;;;17.80;50.20;;;;;;5077172;28;20124;-65
2022/11/03 06:18:35;;;;;;;13.23;1.88;;;17.80;50.10;;;;;;5080009;28;20522;-66
2022/11/03 06:21:13;;;;;;;12.93;2.17;;;17.80;50.20;;;;;;5072463;28;20546;-67
2022/11/03 06:23:40;;;;;;;14.82;2.88;;;17.70;50.10;;;;;;5074894;28;20078;-67
2022/11/03 06:26:19;;;;;;;20.73;3.65;;;17.70;49.80;;;;;;5076816;28;20089;-67
2022/11/03 06:28:48;;;;;;;10.23;2.70;;;17.80;50.20;;;;;;5077738;28;20160;-66
2022/11/03 06:31:20;;;;;;;9.65;1.95;;;17.80;50.40;;;;;;5084914;28;20537;-66
2022/11/03 06:33:49;;;;;;;15.57;2.40;;;17.70;50.20;;;;;;5075784;28;20100;-68
2022/11/03 06:36:22;;;;;;;10.45;2.33;;;17.70;50.50;;;;;;5078576;28;20084;-67
2022/11/03 06:38:56;;;;;;;14.98;2.33;;;17.70;50.80;;;;;;5078397;28;20156;-65
2022/11/03 06:41:26;;;;;;;12.85;2.03;;;17.60;51.10;;;;;;5073132;28;20573;-67
2022/11/03 06:43:52;;;;;;;17.88;2.67;;;17.70;51.20;;;;;;5081413;28;20075;-67
2022/11/03 06:46:22;;;;;;;19.95;3.03;;;17.70;51.30;;;;;;5081059;28;20079;-63
2022/11/03 06:48:50;;;;;;;20.77;2.67;;;17.60;51.30;;;;;;5079933;28;20103;-66
2022/11/03 06:51:20;;;;;;;13.20;2.35;;;17.60;51.00;;;;;;5079021;28;20446;-68
2022/11/03 06:53:50;;;;;;;14.10;2.30;;;17.70;51.00;;;;;;5074819;28;20153;-66
2022/11/03 06:56:22;;;;;;;13.32;2.33;;;17.60;51.10;;;;;;5081296;28;20087;-68
2022/11/03 06:58:51;;;;;;;9.55;2.38;;;17.70;50.90;;;;;;5080266;28;20095;-68
2022/11/03 07:01:24;;;;;;;12.40;2.30;;;17.70;50.90;;;;;;5083343;28;20098;-67
2022/11/03 07:04:23;;;;;;;9.70;1.98;;;17.60;50.80;;;;;;5075593;28;20621;-66
2022/11/03 07:06:50;;;;;;;23.90;3.05;;;17.60;51.00;;;;;;5080446;28;20085;-68
2022/11/03 07:09:21;;;;;;;13.63;2.20;;;17.70;50.80;;;;;;5083486;28;20093;-66
2022/11/03 07:11:52;;;;;;;11.30;2.38;;;17.70;50.90;;;;;;5081240;28;20076;-67
2022/11/03 07:14:24;;;;;;;7.68;1.98;;;17.70;51.00;;;;;;5077638;28;20139;-68
2022/11/03 07:16:58;;;;;;;9.85;2.25;;;17.70;50.90;;;;;;5079198;28;20088;-65
2022/11/03 07:19:33;;;;;;;7.43;1.95;;;17.70;51.10;;;;;;5079072;28;20085;-66
2022/11/03 07:22:07;;;;;;;11.48;2.17;;;17.60;50.90;;;;;;5078467;28;20091;-67
2022/11/03 07:24:39;;;;;;;11.75;2.42;;;17.60;51.00;;;;;;5084219;28;20537;-67
2022/11/03 07:27:21;;;;;;;13.55;3.17;;;17.60;51.20;;;;;;5082485;28;20491;-67
2022/11/03 07:29:50;;;;;;;10.85;2.88;;;17.60;51.10;;;;;;5080597;28;20505;-65
2022/11/03 07:32:23;;;;;;;14.30;2.58;;;17.50;51.30;;;;;;5080655;28;20167;-66
2022/11/03 07:34:52;;;;;;;18.77;2.78;;;17.40;51.40;;;;;;5085993;28;20138;-69
2022/11/03 07:37:23;;;;;;;16.30;11.43;;;17.50;51.50;;;;;;5083162;28;20079;-65
2022/11/03 07:39:50;;;;;;;13.27;9.27;;;17.50;51.50;;;;;;5084018;28;20122;-66
2022/11/03 07:42:22;;;;;;;15.77;11.57;;;17.50;51.60;;;;;;5083853;28;20089;-65
2022/11/03 07:44:50;;;;;;;17.52;11.35;;;17.50;51.90;;;;;;5078438;28;20083;-64
2022/11/03 07:47:24;;;;;;;17.98;10.60;;;17.50;52.00;;;;;;5079970;28;20081;-67
2022/11/03 07:49:51;;;;;;;13.95;7.75;;;17.40;52.50;;;;;;5082134;28;20673;-67
2022/11/03 07:52:22;;;;;;;11.80;6.65;;;17.40;52.90;;;;;;5079741;28;20148;-66
2022/11/03 07:54:51;;;;;;;11.75;6.05;;;17.40;53.40;;;;;;5080453;28;20634;-64
2022/11/03 07:57:31;;;;;;;11.52;2.42;;;17.30;53.50;;;;;;5077261;28;20515;-66
2022/11/03 08:00:16;;;;;;;9.15;2.20;;;17.30;53.90;;;;;;5075137;28;20068;-68
2022/11/03 08:02:54;;;;;;;15.68;2.63;;;17.30;54.60;;;;;;5085004;28;20068;-69
2022/11/03 08:05:21;;;;;;;15.43;3.08;;;17.30;55.00;;;;;;5080204;28;20181;-66
2022/11/03 08:07:47;;;;;;;10.35;2.45;;;17.20;55.60;;;;;;5079558;28;20084;-67
2022/11/03 08:10:13;;;;;;;9.80;2.30;;;17.20;56.00;;;;;;5081626;28;20109;-68
2022/11/03 08:12:40;;;;;;;18.58;2.70;;;17.20;56.30;;;;;;5080747;28;20130;-65
2022/11/03 08:15:06;;;;;;;11.65;2.63;;;17.20;56.60;;;;;;5077065;28;20168;-66
2022/11/03 08:17:33;;;;;;;17.33;2.97;;;17.10;56.90;;;;;;5077151;28;20072;-65
2022/11/03 08:19:59;;;;;;;19.15;4.30;;;17.00;57.10;;;;;;5075257;28;20513;-65
2022/11/03 08:22:26;;;;;;;13.68;2.67;;;17.00;57.30;;;;;;5078391;28;20160;-65
2022/11/03 08:24:52;;;;;;;12.82;2.97;;;17.00;57.30;;;;;;5083152;28;20072;-66
2022/11/03 08:27:19;;;;;;;18.92;3.38;;;17.00;57.40;;;;;;5078115;28;20100;-65
2022/11/03 08:29:45;;;;;;;16.73;3.10;;;17.10;57.60;;;;;;5080308;28;20130;-63
2022/11/03 08:32:11;;;;;;;15.40;2.85;;;17.00;57.60;;;;;;5082665;28;20092;-65
2022/11/03 08:34:38;;;;;;;19.35;2.85;;;17.00;57.70;;;;;;5080513;28;20142;-66
2022/11/03 08:37:04;;;;;;;16.27;2.92;;;17.00;57.70;;;;;;5073892;28;20104;-67
2022/11/03 08:39:31;;;;;;;16.17;2.97;;;16.90;58.10;;;;;;5081364;28;20517;-66
2022/11/03 08:41:57;;;;;;;12.65;2.78;;;16.90;58.20;;;;;;5081961;28;20526;-66
2022/11/03 08:44:23;;;;;;;;;;;16.90;58.30;;;;;;5078325;28;20210;-68
2022/11/03 08:46:49;;;;;;;13.85;2.63;;;16.90;58.50;;;;;;5082332;28;20021;-65
2022/11/03 08:49:16;;;;;;;18.45;3.25;;;16.90;58.60;;;;;;5074753;28;20108;-70
2022/11/03 08:51:43;;;;;;;15.85;2.80;;;16.90;58.70;;;;;;5077608;28;20477;-68
2022/11/03 08:54:09;;;;;;;15.98;2.90;;;16.90;58.70;;;;;;5081147;28;20076;-68
2022/11/03 08:56:36;;;;;;;24.77;4.00;;;16.90;58.50;;;;;;5077835;28;20069;-63
2022/11/03 08:59:02;;;;;;;17.63;3.35;;;16.90;58.30;;;;;;5075052;28;20069;-66
2022/11/03 09:01:28;;;;;;;;;;;16.90;58.20;;;;;;5082957;28;20072;-66
2022/11/03 09:03:54;;;;;;;19.08;2.95;;;16.90;58.10;;;;;;5080787;28;19971;-68
2022/11/03 09:06:21;;;;;;;20.05;3.10;;;16.90;58.10;;;;;;5080259;28;20068;-67
2022/11/03 09:08:47;;;;;;;16.70;2.80;;;16.90;58.00;;;;;;5074262;28;20081;-68
2022/11/03 09:11:14;;;;;;;19.15;3.50;;;16.80;57.90;;;;;;5077592;28;20491;-66
2022/11/03 09:13:40;;;;;;;27.55;2.58;;;16.70;57.60;;;;;;5076015;28;20109;-66
2022/11/03 09:16:07;;;;;;;26.02;3.13;;;16.70;57.60;;;;;;5081591;28;20171;-67
2022/11/03 09:18:33;;;;;;;14.40;3.00;;;16.70;57.30;;;;;;5080242;28;20077;-64
2022/11/03 09:21:00;;;;;;;19.85;2.88;;;16.70;57.00;;;;;;5075420;28;20084;-67
2022/11/03 09:23:26;;;;;;;17.17;2.67;;;16.70;56.90;;;;;;5078939;28;20463;-67
2022/11/03 09:25:52;;;;;;;13.43;2.55;;;16.70;56.80;;;;;;5077236;28;20084;-67
2022/11/03 09:28:19;;;;;;;16.27;2.38;;;16.70;56.80;;;;;;5077959;28;20122;-67
2022/11/03 09:30:45;;;;;;;20.95;3.15;;;16.70;56.80;;;;;;5078385;28;20111;-66
2022/11/03 09:33:12;;;;;;;17.25;2.40;;;16.60;56.80;;;;;;5081662;28;20148;-66
2022/11/03 09:35:38;;;;;;;17.17;2.40;;;16.70;56.90;;;;;;5081206;28;20151;-68
2022/11/03 09:38:06;;;;;;;10.52;2.17;;;16.70;56.80;;;;;;5083263;28;20065;-67
2022/11/03 09:40:34;;;;;;;18.30;2.72;;;16.60;56.90;;;;;;5076099;28;20078;-68
2022/11/03 09:43:01;;;;;;;13.65;2.90;;;16.60;57.00;;;;;;5082950;28;20080;-67
2022/11/03 09:45:34;;;;;;;13.35;2.33;;;16.60;57.20;;;;;;5075718;28;20077;-67
2022/11/03 09:48:01;;;;;;;8.32;2.20;;;16.60;57.30;;;;;;5073936;28;20573;-67
2022/11/03 09:50:27;;;;;;;11.70;2.42;;;16.60;56.80;;;;;;5075630;28;20113;-66
2022/11/03 09:52:55;;;;;;;13.48;2.45;;;16.70;56.50;;;;;;5079623;28;20065;-64
2022/11/03 09:55:25;;;;;;;11.57;2.15;;;16.70;56.40;;;;;;5079735;28;20545;-66
2022/11/03 09:58:00;;;;;;;8.48;2.70;;;16.80;55.90;;;;;;5078615;28;20081;-66
2022/11/03 10:00:27;;;;;;;10.90;2.00;;;16.80;55.60;;;;;;5080433;28;20068;-67
2022/11/03 10:02:54;;;;;;;8.93;2.17;;;16.90;55.60;;;;;;5083370;28;20072;-66
2022/11/03 10:05:26;;;;;;;8.85;2.13;;;16.90;55.60;;;;;;5081576;28;20165;-67
2022/11/03 10:07:57;;;;;;;6.72;2.03;;;16.90;55.60;;;;;;5077094;28;20069;-67
2022/11/03 10:10:23;;;;;;;12.25;1.92;;;16.90;55.40;;;;;;5082188;28;20085;-67
2022/11/03 10:12:52;;;;;;;5.95;1.80;;;16.90;55.60;;;;;;5079139;28;20060;-66
2022/11/03 10:15:20;;;;;;;12.27;2.00;;;16.90;55.90;;;;;;5080458;28;20538;-67
2022/11/03 10:17:49;;;;;;;9.32;2.03;;;16.80;56.30;;;;;;5082490;28;20076;-65
2022/11/03 10:20:18;;;;;;;9.80;2.30;;;16.70;56.70;;;;;;5072751;28;20160;-67
2022/11/03 10:22:47;;;;;;;9.30;2.13;;;16.70;56.90;;;;;;5084503;28;20080;-65
2022/11/03 10:25:40;;;;;;;6.60;1.63;;;16.70;56.80;;;;;;5078506;28;20089;-62
2022/11/03 10:28:15;;;;;;;11.45;1.98;;;16.80;56.60;;;;;;5063100;28;20096;-61
2022/11/03 10:31:08;;;;;;;11.35;2.25;;;17.00;56.10;;;;;;5077063;28;20084;-61
2022/11/03 10:33:50;;;;;;;7.85;1.65;;;17.30;55.70;;;;;;5084787;28;20595;-63
2022/11/03 10:36:17;;;;;;;8.25;2.00;;;17.40;55.50;;;;;;5077299;28;20477;-63
2022/11/03 10:38:44;;;;;;;9.57;2.20;;;17.40;55.30;;;;;;5080654;28;20069;-61
2022/11/03 10:41:10;;;;;;;7.35;2.15;;;17.40;55.40;;;;;;5087461;28;20080;-60
2022/11/03 10:43:38;;;;;;;7.63;2.00;;;17.20;55.40;;;;;;5075446;28;20069;-64
2022/11/03 10:46:19;;;;;;;9.75;1.70;;;17.20;55.40;;;;;;5072652;28;20445;-61
2022/11/03 10:49:02;;;;;;;9.50;1.83;;;17.30;55.40;;;;;;5074041;28;20081;-63
2022/11/03 10:51:29;;;;;;;23.70;2.33;;;17.40;55.50;;;;;;5072743;28;20562;-57
2022/11/03 10:53:56;;;;;;;8.60;2.17;;;17.20;55.90;;;;;;5072905;28;20069;-61
2022/11/03 10:56:22;;;;;;;6.95;1.90;;;17.30;56.10;;;;;;5072628;28;20437;-62
2022/11/03 10:58:49;;;;;;;6.47;1.55;;;17.10;56.10;;;;;;5072451;28;20073;-63
2022/11/03 11:01:15;;;;;;;8.18;1.65;;;17.30;56.00;;;;;;5075584;28;20088;-59
2022/11/03 11:03:43;;;;;;;7.13;1.52;;;17.40;56.10;;;;;;5079513;28;20117;-61
2022/11/03 11:06:20;;;;;;;10.02;1.63;;;17.40;55.80;;;;;;5072607;28;20080;-62
2022/11/03 11:08:48;;;;;;;7.57;1.65;;;17.40;56.10;;;;;;5072602;28;20076;-61
2022/11/03 11:11:18;;;;;;;7.55;1.50;;;17.40;56.30;;;;;;5078517;28;21597;-63
2022/11/03 11:13:44;;;;;;;4.68;1.35;;;17.50;56.10;;;;;;5083431;28;20121;-63
2022/11/03 11:16:48;;;;;;;5.00;1.30;;;17.50;56.70;;;;;;5081055;28;20072;-64
2022/11/03 11:19:15;;;;;;;7.75;1.73;;;17.50;56.20;;;;;;5076986;28;20060;-60
2022/11/03 11:21:41;;;;;;;4.57;1.55;;;17.60;56.00;;;;;;5071799;28;20077;-64
2022/11/03 11:24:08;;;;;;;;;;;17.50;56.50;;;;;;5072115;28;20097;-63
2022/11/03 11:26:36;;;;;;;4.70;1.55;;;17.40;56.60;;;;;;5072053;28;20328;-61
2022/11/03 11:29:08;;;;;;;7.85;1.90;;;17.30;57.10;;;;;;5074144;28;20070;-60
2022/11/03 11:31:45;;;;;;;8.40;1.70;;;17.40;56.40;;;;;;5079279;28;20092;-62
2022/11/03 11:34:16;;;;;;;7.50;1.30;;;17.30;56.20;;;;;;5072344;28;20134;-62
2022/11/03 11:36:44;;;;;;;4.00;1.30;;;17.30;56.20;;;;;;5080366;28;20061;-63
2022/11/03 11:39:12;;;;;;;7.65;1.52;;;17.20;56.00;;;;;;5082096;28;20122;-61
2022/11/03 11:42:13;;;;;;;7.05;1.30;;;17.20;56.40;;;;;;5083671;28;20152;-62
2022/11/03 11:44:42;;;;;;;5.57;1.40;;;17.20;56.60;;;;;;5081366;28;20068;-62
2022/11/03 11:47:42;;;;;;;5.68;1.40;;;17.20;57.10;;;;;;5087235;28;20099;-63
2022/11/03 11:50:14;;;;;;;3.70;1.30;;;17.20;57.00;;;;;;5085762;28;20119;-63
2022/11/03 11:52:46;;;;;;;3.67;1.30;;;17.20;56.50;;;;;;5083964;28;20077;-60
2022/11/03 11:55:43;;;;;;;7.25;1.40;;;17.00;56.40;;;;;;5084198;28;20077;-62
2022/11/03 11:58:35;;;;;;;2.10;0.98;;;17.10;56.90;;;;;;5056468;28;20130;-63
2022/11/03 12:01:05;;;;;;;4.22;1.00;;;16.90;57.00;;;;;;5082692;28;20172;-61
2022/11/03 12:03:44;;;;;;;4.72;1.02;;;16.90;57.20;;;;;;5081869;28;20080;-62
2022/11/03 12:06:12;;;;;;;4.15;0.90;;;16.90;57.20;;;;;;5077887;28;20069;-63
2022/11/03 12:08:40;;;;;;;47.40;25.92;;;16.90;57.30;;;;;;5083453;28;20069;-61
2022/11/03 12:11:08;;;;;;;3.78;1.00;;;16.80;57.40;;;;;;5083087;28;20093;-63
2022/11/03 12:13:46;;;;;;;6.53;0.90;;;16.80;57.50;;;;;;5080350;28;20122;-62
2022/11/03 12:16:35;;;;;;;5.65;1.23;;;16.80;57.60;;;;;;5079187;28;20069;-62
2022/11/03 12:19:32;;;;;;;4.65;1.20;;;16.80;57.50;;;;;;5075386;28;20089;-63
2022/11/03 12:22:00;;;;;;;5.38;1.30;;;16.80;57.70;;;;;;5083827;28;20122;-63
2022/11/03 12:24:32;;;;;;;3.53;0.80;;;16.80;57.70;;;;;;5078069;28;20472;-63
2022/11/03 12:26:59;;;;;;;5.25;1.15;;;16.80;57.80;;;;;;5081668;28;20526;-62
2022/11/03 12:29:26;;;;;;;2.50;0.90;;;16.80;57.80;;;;;;5081031;28;20160;-62
2022/11/03 12:31:52;;;;;;;4.07;1.20;;;16.70;58.50;;;;;;5081498;28;20810;-62
2022/11/03 12:34:19;;;;;;;6.80;1.10;;;16.50;59.00;;;;;;5079466;28;20077;-61
2022/11/03 12:36:45;;;;;;;3.50;1.10;;;16.50;59.10;;;;;;5080950;28;20104;-64
2022/11/03 12:39:12;;;;;;;;;;;16.50;59.30;;;;;;5087597;28;20502;-64
2022/11/03 12:41:38;;;;;;;7.97;1.30;;;16.50;59.40;;;;;;5081699;28;20006;-63
2022/11/03 12:44:05;;;;;;;5.13;1.70;;;16.40;59.60;;;;;;5081995;28;20097;-64
2022/11/03 12:46:31;;;;;;;;;;;16.30;59.90;;;;;;5075376;28;20106;-63
2022/11/03 12:48:57;;;;;;;7.25;1.48;;;16.30;60.20;;;;;;5083622;28;19956;-63
2022/11/03 12:51:23;;;;;;;;;;;16.30;60.60;;;;;;5070657;28;20085;-63
2022/11/03 12:53:51;;;;;;;6.63;1.75;;;16.30;60.80;;;;;;5070982;28;20404;-61
2022/11/03 12:56:18;;;;;;;3.40;1.02;;;16.40;60.60;;;;;;5083700;28;20548;-62
2022/11/03 12:58:44;;;;;;;7.72;1.45;;;16.40;60.40;;;;;;5083617;28;20073;-63
2022/11/03 13:01:11;;;;;;;;;;;16.40;60.00;;;;;;5074242;28;20083;-61
2022/11/03 13:03:37;;;;;;;15.93;1.20;;;16.40;59.70;;;;;;5070809;28;19980;-62
2022/11/03 13:06:08;;;;;;;16.33;1.20;;;16.50;58.90;;;;;;5070481;28;20077;-60
2022/11/03 13:08:35;;;;;;;12.73;2.08;;;16.60;58.40;;;;;;5070550;28;20057;-62
2022/11/03 13:11:02;;;;;;;19.88;1.75;;;16.50;57.90;;;;;;5075539;28;20134;-62
2022/11/03 13:13:29;;;;;;;44.03;3.08;;;16.70;57.80;;;;;;5069961;28;20065;-61
2022/11/03 13:15:55;;;;;;;33.00;2.38;;;16.70;57.50;;;;;;5077811;28;20611;-63
2022/11/03 13:18:21;;;;;;;;;;;16.60;58.00;;;;;;5071391;28;20422;-60